sensor_id;sensor_type;location;lat;lon;timestamp;temperature;humidity
6054;DHT22;3055;50.886;14.814;2023-04-01T00:01:42;9.20;99.90
6054;DHT22;3055;50.886;14.814;2023-04-01T00:04:09;9.20;99.90
6054;DHT22;3055;50.886;14.814;2023-04-01T00:06:36;9.20;99.90
6054;DHT22;3055;50.886;14.814;2023-04-01T00:09:05;9.20;99.90
6054;DHT22;3055;50.886;14.814;2023-04-01T00:11:32;9.20;99.90
6054;DHT22;3055;50.886;14.814;2023-04-01T00:14:00;9.20;99.90
6054;DHT22;3055;50.886;14.814;2023-04-01T00:16:27;9.20;99.90
6054;DHT22;3055;50.886;14.814;2023-04-01T00:18:54;9.20;99.90
6054;DHT22;3055;50.886;14.814;2023-04-01T00:21:21;9.20;99.90
6054;DHT22;3055;50.886;14.814;2023-04-01T00:23:49;9.10;99.90
6054;DHT22;3055;50.886;14.814;2023-04-01T00:26:18;9.20;99.90
6054;DHT22;3055;50.886;14.814;2023-04-01T00:28:46;9.20;99.90
6054;DHT22;3055;50.886;14.814;2023-04-01T00:31:14;9.20;99.90
6054;DHT22;3055;50.886;14.814;2023-04-01T00:33:41;9.20;99.90
6054;DHT22;3055;50.886;14.814;2023-04-01T00:36:09;9.30;99.90
6054;DHT22;3055;50.886;14.814;2023-04-01T00:38:37;9.30;99.90
6054;DHT22;3055;50.886;14.814;2023-04-01T00:41:05;9.20;99.90
6054;DHT22;3055;50.886;14.814;2023-04-01T00:43:34;9.10;99.90
6054;DHT22;3055;50.886;14.814;2023-04-01T00:46:02;9.20;99.90
6054;DHT22;3055;50.886;14.814;2023-04-01T00:48:32;9.20;99.90
6054;DHT22;3055;50.886;14.814;2023-04-01T00:51:05;9.20;99.90
6054;DHT22;3055;50.886;14.814;2023-04-01T00:53:34;9.10;99.90
6054;DHT22;3055;50.886;14.814;2023-04-01T00:56:05;9.10;99.90
6054;DHT22;3055;50.886;14.814;2023-04-01T00:58:37;9.10;99.90
6054;DHT22;3055;50.886;14.814;2023-04-01T01:01:06;9.10;99.90
6054;DHT22;3055;50.886;14.814;2023-04-01T01:03:35;9.20;99.90
6054;DHT22;3055;50.886;14.814;2023-04-01T01:06:20;9.10;99.90
6054;DHT22;3055;50.886;14.814;2023-04-01T01:09:21;9.10;99.90
6054;DHT22;3055;50.886;14.814;2023-04-01T01:11:54;9.10;99.90
6054;DHT22;3055;50.886;14.814;2023-04-01T01:14:34;9.10;99.90
6054;DHT22;3055;50.886;14.814;2023-04-01T01:17:10;9.10;99.90
6054;DHT22;3055;50.886;14.814;2023-04-01T01:20:03;9.10;99.90
6054;DHT22;3055;50.886;14.814;2023-04-01T01:25:38;9.10;99.90
6054;DHT22;3055;50.886;14.814;2023-04-01T01:28:20;9.10;99.90
6054;DHT22;3055;50.886;14.814;2023-04-01T01:30:54;9.00;99.90
6054;DHT22;3055;50.886;14.814;2023-04-01T01:33:55;9.10;99.90
6054;DHT22;3055;50.886;14.814;2023-04-01T01:36:28;9.00;99.90
6054;DHT22;3055;50.886;14.814;2023-04-01T01:38:57;9.10;99.90
6054;DHT22;3055;50.886;14.814;2023-04-01T01:41:25;9.10;99.90
6054;DHT22;3055;50.886;14.814;2023-04-01T01:43:54;9.00;99.90
6054;DHT22;3055;50.886;14.814;2023-04-01T01:46:24;9.00;99.90
6054;DHT22;3055;50.886;14.814;2023-04-01T01:48:53;9.00;99.90
6054;DHT22;3055;50.886;14.814;2023-04-01T01:51:22;9.10;99.90
6054;DHT22;3055;50.886;14.814;2023-04-01T01:53:51;9.10;99.90
6054;DHT22;3055;50.886;14.814;2023-04-01T01:56:18;9.10;99.90
6054;DHT22;3055;50.886;14.814;2023-04-01T01:58:49;9.00;99.90
6054;DHT22;3055;50.886;14.814;2023-04-01T02:01:19;9.00;99.90
6054;DHT22;3055;50.886;14.814;2023-04-01T02:03:48;9.00;99.90
6054;DHT22;3055;50.886;14.814;2023-04-01T02:06:18;9.00;99.90
6054;DHT22;3055;50.886;14.814;2023-04-01T02:08:48;9.00;99.90
6054;DHT22;3055;50.886;14.814;2023-04-01T02:11:22;9.00;99.90
6054;DHT22;3055;50.886;14.814;2023-04-01T02:13:53;9.00;99.90
6054;DHT22;3055;50.886;14.814;2023-04-01T02:16:26;9.00;99.90
6054;DHT22;3055;50.886;14.814;2023-04-01T02:18:55;8.90;99.90
6054;DHT22;3055;50.886;14.814;2023-04-01T02:21:27;8.90;99.90
6054;DHT22;3055;50.886;14.814;2023-04-01T02:23:57;8.90;99.90
6054;DHT22;3055;50.886;14.814;2023-04-01T02:26:26;8.80;99.90
6054;DHT22;3055;50.886;14.814;2023-04-01T02:28:54;8.80;99.90
6054;DHT22;3055;50.886;14.814;2023-04-01T02:31:22;8.90;99.90
6054;DHT22;3055;50.886;14.814;2023-04-01T02:33:50;8.90;99.90
6054;DHT22;3055;50.886;14.814;2023-04-01T02:36:17;8.80;99.90
6054;DHT22;3055;50.886;14.814;2023-04-01T02:38:45;8.80;99.90
6054;DHT22;3055;50.886;14.814;2023-04-01T02:41:13;8.70;99.90
6054;DHT22;3055;50.886;14.814;2023-04-01T02:43:41;8.80;99.90
6054;DHT22;3055;50.886;14.814;2023-04-01T02:46:09;8.80;99.90
6054;DHT22;3055;50.886;14.814;2023-04-01T02:48:36;8.70;99.90
6054;DHT22;3055;50.886;14.814;2023-04-01T02:51:03;8.60;99.90
6054;DHT22;3055;50.886;14.814;2023-04-01T02:53:30;8.60;99.90
6054;DHT22;3055;50.886;14.814;2023-04-01T02:55:57;8.70;99.90
6054;DHT22;3055;50.886;14.814;2023-04-01T02:58:24;8.70;99.90
6054;DHT22;3055;50.886;14.814;2023-04-01T03:00:52;8.70;99.90
6054;DHT22;3055;50.886;14.814;2023-04-01T03:03:20;8.60;99.90
6054;DHT22;3055;50.886;14.814;2023-04-01T03:05:47;8.60;99.90
6054;DHT22;3055;50.886;14.814;2023-04-01T03:08:14;8.50;99.90
6054;DHT22;3055;50.886;14.814;2023-04-01T03:10:41;8.60;99.90
6054;DHT22;3055;50.886;14.814;2023-04-01T03:13:08;8.60;99.90
6054;DHT22;3055;50.886;14.814;2023-04-01T03:15:35;8.60;99.90
6054;DHT22;3055;50.886;14.814;2023-04-01T03:18:04;8.70;99.90
6054;DHT22;3055;50.886;14.814;2023-04-01T03:20:31;8.70;99.90
6054;DHT22;3055;50.886;14.814;2023-04-01T03:22:58;8.70;99.90
6054;DHT22;3055;50.886;14.814;2023-04-01T03:25:25;8.60;99.90
6054;DHT22;3055;50.886;14.814;2023-04-01T03:27:54;8.60;99.90
6054;DHT22;3055;50.886;14.814;2023-04-01T03:30:21;8.60;99.90
6054;DHT22;3055;50.886;14.814;2023-04-01T03:32:48;8.50;99.90
6054;DHT22;3055;50.886;14.814;2023-04-01T03:35:17;8.50;99.90
6054;DHT22;3055;50.886;14.814;2023-04-01T03:37:44;8.50;99.90
6054;DHT22;3055;50.886;14.814;2023-04-01T03:40:11;8.40;99.90
6054;DHT22;3055;50.886;14.814;2023-04-01T03:42:38;8.40;99.90
6054;DHT22;3055;50.886;14.814;2023-04-01T03:45:06;8.40;99.90
6054;DHT22;3055;50.886;14.814;2023-04-01T03:47:33;8.50;99.90
6054;DHT22;3055;50.886;14.814;2023-04-01T03:50:00;8.60;99.90
6054;DHT22;3055;50.886;14.814;2023-04-01T03:52:29;8.60;99.90
6054;DHT22;3055;50.886;14.814;2023-04-01T03:54:56;8.70;99.90
6054;DHT22;3055;50.886;14.814;2023-04-01T03:57:23;8.70;99.90
6054;DHT22;3055;50.886;14.814;2023-04-01T03:59:50;8.70;99.90
6054;DHT22;3055;50.886;14.814;2023-04-01T04:02:17;8.80;99.90
6054;DHT22;3055;50.886;14.814;2023-04-01T04:04:44;8.80;99.90
6054;DHT22;3055;50.886;14.814;2023-04-01T04:07:13;8.80;99.90
6054;DHT22;3055;50.886;14.814;2023-04-01T04:09:41;8.80;99.90
6054;DHT22;3055;50.886;14.814;2023-04-01T04:12:08;8.80;99.90
6054;DHT22;3055;50.886;14.814;2023-04-01T04:14:35;8.70;99.90
6054;DHT22;3055;50.886;14.814;2023-04-01T04:17:03;8.80;99.90
6054;DHT22;3055;50.886;14.814;2023-04-01T04:19:32;8.80;99.90
6054;DHT22;3055;50.886;14.814;2023-04-01T04:22:00;8.80;99.90
6054;DHT22;3055;50.886;14.814;2023-04-01T04:24:27;8.80;99.90
6054;DHT22;3055;50.886;14.814;2023-04-01T04:26:55;8.80;99.90
6054;DHT22;3055;50.886;14.814;2023-04-01T04:29:23;8.80;99.90
6054;DHT22;3055;50.886;14.814;2023-04-01T04:31:50;8.80;99.90
6054;DHT22;3055;50.886;14.814;2023-04-01T04:34:17;8.80;99.90
6054;DHT22;3055;50.886;14.814;2023-04-01T04:36:45;8.80;99.90
6054;DHT22;3055;50.886;14.814;2023-04-01T04:39:12;8.80;99.90
6054;DHT22;3055;50.886;14.814;2023-04-01T04:41:40;8.80;99.90
6054;DHT22;3055;50.886;14.814;2023-04-01T04:44:08;8.90;99.90
6054;DHT22;3055;50.886;14.814;2023-04-01T04:46:35;8.90;99.90
6054;DHT22;3055;50.886;14.814;2023-04-01T04:49:04;8.90;99.90
6054;DHT22;3055;50.886;14.814;2023-04-01T04:51:31;8.90;99.90
6054;DHT22;3055;50.886;14.814;2023-04-01T04:53:59;9.00;99.90
6054;DHT22;3055;50.886;14.814;2023-04-01T04:56:26;9.00;99.90
6054;DHT22;3055;50.886;14.814;2023-04-01T04:58:53;9.10;99.90
6054;DHT22;3055;50.886;14.814;2023-04-01T05:01:22;9.20;99.90
6054;DHT22;3055;50.886;14.814;2023-04-01T05:03:50;9.20;99.90
6054;DHT22;3055;50.886;14.814;2023-04-01T05:06:18;9.20;99.90
6054;DHT22;3055;50.886;14.814;2023-04-01T05:08:45;9.20;99.90
6054;DHT22;3055;50.886;14.814;2023-04-01T05:11:14;9.30;99.90
6054;DHT22;3055;50.886;14.814;2023-04-01T05:13:42;9.30;99.90
6054;DHT22;3055;50.886;14.814;2023-04-01T05:16:09;9.40;99.90
6054;DHT22;3055;50.886;14.814;2023-04-01T05:18:38;9.40;99.90
6054;DHT22;3055;50.886;14.814;2023-04-01T05:21:07;9.40;99.90
6054;DHT22;3055;50.886;14.814;2023-04-01T05:23:34;9.40;99.90
6054;DHT22;3055;50.886;14.814;2023-04-01T05:26:03;9.40;99.90
6054;DHT22;3055;50.886;14.814;2023-04-01T05:28:30;9.40;99.90
6054;DHT22;3055;50.886;14.814;2023-04-01T05:30:58;9.40;99.90
6054;DHT22;3055;50.886;14.814;2023-04-01T05:33:26;9.50;99.90
6054;DHT22;3055;50.886;14.814;2023-04-01T05:35:54;9.40;99.90
6054;DHT22;3055;50.886;14.814;2023-04-01T05:38:21;9.40;99.90
6054;DHT22;3055;50.886;14.814;2023-04-01T05:40:49;9.40;99.90
6054;DHT22;3055;50.886;14.814;2023-04-01T05:43:16;9.40;99.90
6054;DHT22;3055;50.886;14.814;2023-04-01T05:45:43;9.50;99.90
6054;DHT22;3055;50.886;14.814;2023-04-01T05:48:10;9.50;99.90
6054;DHT22;3055;50.886;14.814;2023-04-01T05:50:37;9.60;99.90
6054;DHT22;3055;50.886;14.814;2023-04-01T05:53:07;9.60;99.90
6054;DHT22;3055;50.886;14.814;2023-04-01T05:55:35;9.60;99.90
6054;DHT22;3055;50.886;14.814;2023-04-01T05:58:02;9.60;99.90
6054;DHT22;3055;50.886;14.814;2023-04-01T06:00:29;9.60;99.90
6054;DHT22;3055;50.886;14.814;2023-04-01T06:02:58;9.70;99.90
6054;DHT22;3055;50.886;14.814;2023-04-01T06:05:28;9.80;99.90
6054;DHT22;3055;50.886;14.814;2023-04-01T06:07:58;9.80;99.90
6054;DHT22;3055;50.886;14.814;2023-04-01T06:10:36;9.90;99.90
6054;DHT22;3055;50.886;14.814;2023-04-01T06:13:12;10.00;99.90
6054;DHT22;3055;50.886;14.814;2023-04-01T06:15:51;10.00;99.90
6054;DHT22;3055;50.886;14.814;2023-04-01T06:18:45;10.10;99.90
6054;DHT22;3055;50.886;14.814;2023-04-01T06:21:31;10.20;99.90
6054;DHT22;3055;50.886;14.814;2023-04-01T06:24:09;10.20;99.90
6054;DHT22;3055;50.886;14.814;2023-04-01T06:26:44;10.40;99.90
6054;DHT22;3055;50.886;14.814;2023-04-01T06:32:22;10.50;99.90
6054;DHT22;3055;50.886;14.814;2023-04-01T06:35:04;10.60;99.90
6054;DHT22;3055;50.886;14.814;2023-04-01T06:37:51;10.70;99.90
6054;DHT22;3055;50.886;14.814;2023-04-01T06:40:44;10.80;99.90
6054;DHT22;3055;50.886;14.814;2023-04-01T06:43:21;10.90;99.90
6054;DHT22;3055;50.886;14.814;2023-04-01T06:45:54;11.00;99.90
6054;DHT22;3055;50.886;14.814;2023-04-01T06:48:35;11.10;99.90
6054;DHT22;3055;50.886;14.814;2023-04-01T06:51:12;11.10;93.10
6054;DHT22;3055;50.886;14.814;2023-04-01T06:53:50;11.20;69.30
6054;DHT22;3055;50.886;14.814;2023-04-01T06:56:21;11.20;88.80
6054;DHT22;3055;50.886;14.814;2023-04-01T06:58:55;11.30;69.70
6054;DHT22;3055;50.886;14.814;2023-04-01T07:01:27;11.40;65.80
6054;DHT22;3055;50.886;14.814;2023-04-01T07:03:58;11.60;35.00
6054;DHT22;3055;50.886;14.814;2023-04-01T07:06:30;11.60;20.60
6054;DHT22;3055;50.886;14.814;2023-04-01T07:09:00;11.70;10.90
6054;DHT22;3055;50.886;14.814;2023-04-01T07:11:31;11.70;1.00
6054;DHT22;3055;50.886;14.814;2023-04-01T07:14:02;11.70;1.00
6054;DHT22;3055;50.886;14.814;2023-04-01T07:16:32;11.70;1.00
6054;DHT22;3055;50.886;14.814;2023-04-01T07:19:04;11.70;1.00
6054;DHT22;3055;50.886;14.814;2023-04-01T07:21:36;11.70;1.00
6054;DHT22;3055;50.886;14.814;2023-04-01T07:24:10;11.80;1.00
6054;DHT22;3055;50.886;14.814;2023-04-01T07:26:38;11.80;1.00
6054;DHT22;3055;50.886;14.814;2023-04-01T07:29:10;11.70;1.00
6054;DHT22;3055;50.886;14.814;2023-04-01T07:32:03;11.70;1.00
6054;DHT22;3055;50.886;14.814;2023-04-01T07:34:39;11.70;1.00
6054;DHT22;3055;50.886;14.814;2023-04-01T07:37:10;11.80;1.00
6054;DHT22;3055;50.886;14.814;2023-04-01T07:39:45;11.80;1.00
6054;DHT22;3055;50.886;14.814;2023-04-01T07:42:24;11.90;1.00
6054;DHT22;3055;50.886;14.814;2023-04-01T07:45:00;12.10;1.00
6054;DHT22;3055;50.886;14.814;2023-04-01T07:47:45;12.20;1.00
6054;DHT22;3055;50.886;14.814;2023-04-01T07:50:23;12.30;1.00
6054;DHT22;3055;50.886;14.814;2023-04-01T07:52:58;12.30;1.00
6054;DHT22;3055;50.886;14.814;2023-04-01T07:55:29;12.20;1.00
6054;DHT22;3055;50.886;14.814;2023-04-01T07:58:04;12.20;1.00
6054;DHT22;3055;50.886;14.814;2023-04-01T08:00:41;12.20;1.00
6054;DHT22;3055;50.886;14.814;2023-04-01T08:03:23;12.30;1.00
6054;DHT22;3055;50.886;14.814;2023-04-01T08:05:58;12.30;1.00
6054;DHT22;3055;50.886;14.814;2023-04-01T08:08:36;12.30;1.00
6054;DHT22;3055;50.886;14.814;2023-04-01T08:11:14;12.30;1.00
6054;DHT22;3055;50.886;14.814;2023-04-01T08:13:56;12.40;1.00
6054;DHT22;3055;50.886;14.814;2023-04-01T08:16:32;12.50;1.00
6054;DHT22;3055;50.886;14.814;2023-04-01T08:19:06;12.40;99.90
6054;DHT22;3055;50.886;14.814;2023-04-01T08:21:42;12.30;99.90
6054;DHT22;3055;50.886;14.814;2023-04-01T08:24:17;12.40;1.00
6054;DHT22;3055;50.886;14.814;2023-04-01T08:26:49;12.50;1.00
6054;DHT22;3055;50.886;14.814;2023-04-01T08:29:21;12.40;1.00
6054;DHT22;3055;50.886;14.814;2023-04-01T08:31:54;12.40;1.00
6054;DHT22;3055;50.886;14.814;2023-04-01T08:34:26;12.40;99.90
6054;DHT22;3055;50.886;14.814;2023-04-01T08:36:58;12.40;99.90
6054;DHT22;3055;50.886;14.814;2023-04-01T08:39:30;12.40;99.90
6054;DHT22;3055;50.886;14.814;2023-04-01T08:42:27;12.50;99.90
6054;DHT22;3055;50.886;14.814;2023-04-01T08:48:08;12.80;99.90
6054;DHT22;3055;50.886;14.814;2023-04-01T08:51:03;13.00;99.90
6054;DHT22;3055;50.886;14.814;2023-04-01T08:53:43;13.10;99.90
6054;DHT22;3055;50.886;14.814;2023-04-01T08:56:17;13.20;99.90
6054;DHT22;3055;50.886;14.814;2023-04-01T08:58:59;13.20;99.90
6054;DHT22;3055;50.886;14.814;2023-04-01T09:05:12;13.30;99.90
6054;DHT22;3055;50.886;14.814;2023-04-01T09:07:51;13.30;99.90
6054;DHT22;3055;50.886;14.814;2023-04-01T09:10:59;13.40;99.90
6054;DHT22;3055;50.886;14.814;2023-04-01T09:13:52;13.40;99.90
6054;DHT22;3055;50.886;14.814;2023-04-01T09:16:38;13.40;99.90
6054;DHT22;3055;50.886;14.814;2023-04-01T09:19:23;13.50;99.90
6054;DHT22;3055;50.886;14.814;2023-04-01T09:22:20;13.60;99.90
6054;DHT22;3055;50.886;14.814;2023-04-01T09:27:57;13.80;99.90
6054;DHT22;3055;50.886;14.814;2023-04-01T09:34:04;14.10;99.90
6054;DHT22;3055;50.886;14.814;2023-04-01T09:36:44;13.80;99.90
6054;DHT22;3055;50.886;14.814;2023-04-01T09:39:26;13.70;99.90
6054;DHT22;3055;50.886;14.814;2023-04-01T09:42:09;13.90;99.90
6054;DHT22;3055;50.886;14.814;2023-04-01T09:44:45;14.10;99.90
6054;DHT22;3055;50.886;14.814;2023-04-01T09:47:25;14.20;99.90
6054;DHT22;3055;50.886;14.814;2023-04-01T09:50:17;14.30;99.90
6054;DHT22;3055;50.886;14.814;2023-04-01T09:52:55;14.30;99.90
6054;DHT22;3055;50.886;14.814;2023-04-01T09:56:01;14.40;99.90
6054;DHT22;3055;50.886;14.814;2023-04-01T09:58:54;14.20;99.90
6054;DHT22;3055;50.886;14.814;2023-04-01T10:01:49;14.20;99.90
6054;DHT22;3055;50.886;14.814;2023-04-01T10:10:50;14.40;99.90
6054;DHT22;3055;50.886;14.814;2023-04-01T10:13:50;14.40;99.90
6054;DHT22;3055;50.886;14.814;2023-04-01T10:16:44;14.40;99.90
6054;DHT22;3055;50.886;14.814;2023-04-01T10:22:35;14.50;99.90
6054;DHT22;3055;50.886;14.814;2023-04-01T10:25:38;14.80;99.90
6054;DHT22;3055;50.886;14.814;2023-04-01T10:28:54;14.70;99.90
6054;DHT22;3055;50.886;14.814;2023-04-01T10:38:04;14.70;99.90
6054;DHT22;3055;50.886;14.814;2023-04-01T10:40:50;14.50;99.90
6054;DHT22;3055;50.886;14.814;2023-04-01T10:49:53;14.60;99.90
6054;DHT22;3055;50.886;14.814;2023-04-01T10:55:45;15.00;99.90
6054;DHT22;3055;50.886;14.814;2023-04-01T11:11:08;16.30;95.00
6054;DHT22;3055;50.886;14.814;2023-04-01T11:13:56;16.10;79.80
6054;DHT22;3055;50.886;14.814;2023-04-01T11:17:01;15.70;83.50
6054;DHT22;3055;50.886;14.814;2023-04-01T11:19:56;15.50;86.20
6054;DHT22;3055;50.886;14.814;2023-04-01T11:22:48;15.50;91.70
6054;DHT22;3055;50.886;14.814;2023-04-01T11:25:36;15.50;89.00
6054;DHT22;3055;50.886;14.814;2023-04-01T11:28:24;15.50;90.10
6054;DHT22;3055;50.886;14.814;2023-04-01T11:31:03;15.70;97.20
6054;DHT22;3055;50.886;14.814;2023-04-01T11:33:36;15.90;87.70
6054;DHT22;3055;50.886;14.814;2023-04-01T11:39:00;16.30;67.40
6054;DHT22;3055;50.886;14.814;2023-04-01T11:41:35;16.20;45.10
6054;DHT22;3055;50.886;14.814;2023-04-01T11:44:15;15.80;40.90
6054;DHT22;3055;50.886;14.814;2023-04-01T11:46:54;15.70;44.10
6054;DHT22;3055;50.886;14.814;2023-04-01T11:49:33;15.80;40.30
6054;DHT22;3055;50.886;14.814;2023-04-01T11:52:15;16.20;50.50
6054;DHT22;3055;50.886;14.814;2023-04-01T11:55:15;16.60;42.20
6054;DHT22;3055;50.886;14.814;2023-04-01T12:03:51;15.90;15.10
6054;DHT22;3055;50.886;14.814;2023-04-01T12:06:28;15.40;14.60
6054;DHT22;3055;50.886;14.814;2023-04-01T12:09:01;15.20;14.00
6054;DHT22;3055;50.886;14.814;2023-04-01T12:11:35;15.10;12.20
6054;DHT22;3055;50.886;14.814;2023-04-01T12:14:13;14.90;13.00
6054;DHT22;3055;50.886;14.814;2023-04-01T12:16:53;14.80;16.20
6054;DHT22;3055;50.886;14.814;2023-04-01T12:19:29;14.90;18.30
6054;DHT22;3055;50.886;14.814;2023-04-01T12:22:10;15.00;24.90
6054;DHT22;3055;50.886;14.814;2023-04-01T12:24:46;15.00;38.10
6054;DHT22;3055;50.886;14.814;2023-04-01T12:27:24;15.10;36.20
6054;DHT22;3055;50.886;14.814;2023-04-01T12:30:26;15.20;41.80
6054;DHT22;3055;50.886;14.814;2023-04-01T12:33:04;15.60;42.20
6054;DHT22;3055;50.886;14.814;2023-04-01T12:35:48;15.90;47.20
6054;DHT22;3055;50.886;14.814;2023-04-01T12:38:27;16.00;21.10
6054;DHT22;3055;50.886;14.814;2023-04-01T12:41:16;16.10;16.80
6054;DHT22;3055;50.886;14.814;2023-04-01T12:44:12;16.20;13.50
6054;DHT22;3055;50.886;14.814;2023-04-01T12:47:00;16.10;9.50
6054;DHT22;3055;50.886;14.814;2023-04-01T12:49:58;16.30;6.40
6054;DHT22;3055;50.886;14.814;2023-04-01T12:52:41;16.00;3.60
6054;DHT22;3055;50.886;14.814;2023-04-01T12:55:35;15.90;5.00
6054;DHT22;3055;50.886;14.814;2023-04-01T12:58:34;15.70;3.20
6054;DHT22;3055;50.886;14.814;2023-04-01T13:01:23;15.40;1.00
6054;DHT22;3055;50.886;14.814;2023-04-01T13:10:12;15.20;1.00
6054;DHT22;3055;50.886;14.814;2023-04-01T13:13:07;15.30;9.10
6054;DHT22;3055;50.886;14.814;2023-04-01T13:15:41;15.60;16.40
6054;DHT22;3055;50.886;14.814;2023-04-01T13:18:20;15.80;10.50
6054;DHT22;3055;50.886;14.814;2023-04-01T13:20:57;16.10;6.50
6054;DHT22;3055;50.886;14.814;2023-04-01T13:23:36;16.20;1.00
6054;DHT22;3055;50.886;14.814;2023-04-01T13:26:13;16.30;1.00
6054;DHT22;3055;50.886;14.814;2023-04-01T13:28:49;16.30;1.00
6054;DHT22;3055;50.886;14.814;2023-04-01T13:34:17;16.40;1.00
6054;DHT22;3055;50.886;14.814;2023-04-01T13:36:59;16.70;1.00
6054;DHT22;3055;50.886;14.814;2023-04-01T13:39:51;16.60;1.00
6054;DHT22;3055;50.886;14.814;2023-04-01T13:42:24;16.50;1.00
6054;DHT22;3055;50.886;14.814;2023-04-01T13:45:00;16.50;1.00
6054;DHT22;3055;50.886;14.814;2023-04-01T13:50:41;16.20;1.00
6054;DHT22;3055;50.886;14.814;2023-04-01T13:53:38;16.00;1.00
6054;DHT22;3055;50.886;14.814;2023-04-01T13:56:22;15.90;1.00
6054;DHT22;3055;50.886;14.814;2023-04-01T13:59:05;15.60;1.00
6054;DHT22;3055;50.886;14.814;2023-04-01T14:01:41;15.30;1.00
6054;DHT22;3055;50.886;14.814;2023-04-01T14:07:28;14.70;1.00
6054;DHT22;3055;50.886;14.814;2023-04-01T14:10:07;14.20;49.50
6054;DHT22;3055;50.886;14.814;2023-04-01T14:12:40;13.90;99.90
6054;DHT22;3055;50.886;14.814;2023-04-01T14:15:27;13.60;99.90
6054;DHT22;3055;50.886;14.814;2023-04-01T14:21:12;13.50;99.90
6054;DHT22;3055;50.886;14.814;2023-04-01T14:24:14;13.60;99.90
6054;DHT22;3055;50.886;14.814;2023-04-01T14:29:47;14.00;99.90
6054;DHT22;3055;50.886;14.814;2023-04-01T14:32:27;14.30;99.90
6054;DHT22;3055;50.886;14.814;2023-04-01T14:35:14;14.40;99.90
6054;DHT22;3055;50.886;14.814;2023-04-01T14:38:05;14.50;99.90
6054;DHT22;3055;50.886;14.814;2023-04-01T14:41:06;14.60;99.90
6054;DHT22;3055;50.886;14.814;2023-04-01T14:44:23;14.40;99.90
6054;DHT22;3055;50.886;14.814;2023-04-01T14:50:07;14.20;99.90
6054;DHT22;3055;50.886;14.814;2023-04-01T14:52:38;14.10;99.90
6054;DHT22;3055;50.886;14.814;2023-04-01T14:55:19;13.90;99.90
6054;DHT22;3055;50.886;14.814;2023-04-01T14:57:59;13.80;99.90
6054;DHT22;3055;50.886;14.814;2023-04-01T15:00:27;13.60;99.90
6054;DHT22;3055;50.886;14.814;2023-04-01T15:03:06;13.30;99.90
6054;DHT22;3055;50.886;14.814;2023-04-01T15:05:43;13.10;99.90
6054;DHT22;3055;50.886;14.814;2023-04-01T15:08:20;12.80;1.00
6054;DHT22;3055;50.886;14.814;2023-04-01T15:11:22;12.70;99.90
6054;DHT22;3055;50.886;14.814;2023-04-01T15:16:55;12.70;1.00
6054;DHT22;3055;50.886;14.814;2023-04-01T15:19:36;12.70;99.90
6054;DHT22;3055;50.886;14.814;2023-04-01T15:22:39;12.80;99.90
6054;DHT22;3055;50.886;14.814;2023-04-01T15:25:27;12.90;1.00
6054;DHT22;3055;50.886;14.814;2023-04-01T15:28:04;13.10;1.00
6054;DHT22;3055;50.886;14.814;2023-04-01T15:30:36;13.30;78.60
6054;DHT22;3055;50.886;14.814;2023-04-01T15:33:24;13.50;99.90
6054;DHT22;3055;50.886;14.814;2023-04-01T15:36:02;13.50;99.90
6054;DHT22;3055;50.886;14.814;2023-04-01T15:38:36;13.40;99.90
6054;DHT22;3055;50.886;14.814;2023-04-01T15:41:11;13.40;99.90
6054;DHT22;3055;50.886;14.814;2023-04-01T15:43:42;13.20;99.90
6054;DHT22;3055;50.886;14.814;2023-04-01T15:49:27;13.10;99.90
6054;DHT22;3055;50.886;14.814;2023-04-01T15:52:05;13.00;99.90
6054;DHT22;3055;50.886;14.814;2023-04-01T15:57:48;12.60;99.90
6054;DHT22;3055;50.886;14.814;2023-04-01T16:00:25;12.60;99.90
6054;DHT22;3055;50.886;14.814;2023-04-01T16:06:01;12.40;99.90
6054;DHT22;3055;50.886;14.814;2023-04-01T16:09:00;12.30;1.00
6054;DHT22;3055;50.886;14.814;2023-04-01T16:11:34;12.10;1.00
6054;DHT22;3055;50.886;14.814;2023-04-01T16:14:20;12.00;99.90
6054;DHT22;3055;50.886;14.814;2023-04-01T16:17:05;11.90;99.90
6054;DHT22;3055;50.886;14.814;2023-04-01T16:19:41;11.70;99.90
6054;DHT22;3055;50.886;14.814;2023-04-01T16:22:14;11.70;1.00
6054;DHT22;3055;50.886;14.814;2023-04-01T16:24:48;11.60;99.90
6054;DHT22;3055;50.886;14.814;2023-04-01T16:27:24;11.70;99.90
6054;DHT22;3055;50.886;14.814;2023-04-01T16:29:56;11.70;99.90
6054;DHT22;3055;50.886;14.814;2023-04-01T16:32:37;11.60;1.00
6054;DHT22;3055;50.886;14.814;2023-04-01T16:38:09;11.40;1.00
6054;DHT22;3055;50.886;14.814;2023-04-01T16:40:43;11.40;1.00
6054;DHT22;3055;50.886;14.814;2023-04-01T16:43:16;11.30;1.00
6054;DHT22;3055;50.886;14.814;2023-04-01T16:45:57;11.20;1.00
6054;DHT22;3055;50.886;14.814;2023-04-01T16:48:42;11.10;1.00
6054;DHT22;3055;50.886;14.814;2023-04-01T16:51:14;11.10;1.00
6054;DHT22;3055;50.886;14.814;2023-04-01T16:53:45;11.10;18.40
6054;DHT22;3055;50.886;14.814;2023-04-01T16:56:20;11.20;22.90
6054;DHT22;3055;50.886;14.814;2023-04-01T16:58:59;11.20;4.10
6054;DHT22;3055;50.886;14.814;2023-04-01T17:01:38;11.10;4.10
6054;DHT22;3055;50.886;14.814;2023-04-01T17:04:13;11.20;1.00
6054;DHT22;3055;50.886;14.814;2023-04-01T17:06:47;11.20;1.00
6054;DHT22;3055;50.886;14.814;2023-04-01T17:09:26;11.20;1.00
6054;DHT22;3055;50.886;14.814;2023-04-01T17:12:03;11.10;1.00
6054;DHT22;3055;50.886;14.814;2023-04-01T17:14:38;11.00;1.00
6054;DHT22;3055;50.886;14.814;2023-04-01T17:17:38;11.00;1.00
6054;DHT22;3055;50.886;14.814;2023-04-01T17:20:19;10.90;1.00
6054;DHT22;3055;50.886;14.814;2023-04-01T17:22:55;10.90;1.00
6054;DHT22;3055;50.886;14.814;2023-04-01T17:25:49;10.90;1.00
6054;DHT22;3055;50.886;14.814;2023-04-01T17:28:29;10.70;1.00
6054;DHT22;3055;50.886;14.814;2023-04-01T17:31:06;10.60;1.00
6054;DHT22;3055;50.886;14.814;2023-04-01T17:34:09;10.60;1.00
6054;DHT22;3055;50.886;14.814;2023-04-01T17:36:50;10.50;1.00
6054;DHT22;3055;50.886;14.814;2023-04-01T17:39:46;10.50;1.00
6054;DHT22;3055;50.886;14.814;2023-04-01T17:42:16;10.60;1.00
6054;DHT22;3055;50.886;14.814;2023-04-01T17:44:53;10.50;1.00
6054;DHT22;3055;50.886;14.814;2023-04-01T17:47:30;10.50;1.00
6054;DHT22;3055;50.886;14.814;2023-04-01T17:50:10;10.60;1.00
6054;DHT22;3055;50.886;14.814;2023-04-01T17:52:45;10.60;1.00
6054;DHT22;3055;50.886;14.814;2023-04-01T17:58:19;10.60;1.00
6054;DHT22;3055;50.886;14.814;2023-04-01T18:00:57;10.60;1.00
6054;DHT22;3055;50.886;14.814;2023-04-01T18:06:33;10.50;1.00
6054;DHT22;3055;50.886;14.814;2023-04-01T18:09:05;10.50;6.90
6054;DHT22;3055;50.886;14.814;2023-04-01T18:11:42;10.50;24.00
6054;DHT22;3055;50.886;14.814;2023-04-01T18:14:29;10.50;30.20
6054;DHT22;3055;50.886;14.814;2023-04-01T18:17:24;10.40;77.60
6054;DHT22;3055;50.886;14.814;2023-04-01T18:20:02;10.30;99.90
6054;DHT22;3055;50.886;14.814;2023-04-01T18:22:39;10.20;99.90
6054;DHT22;3055;50.886;14.814;2023-04-01T18:25:18;10.10;99.90
6054;DHT22;3055;50.886;14.814;2023-04-01T18:27:51;10.10;99.90
6054;DHT22;3055;50.886;14.814;2023-04-01T18:30:26;10.10;99.90
6054;DHT22;3055;50.886;14.814;2023-04-01T18:32:58;10.00;99.90
6054;DHT22;3055;50.886;14.814;2023-04-01T18:35:33;10.00;99.90
6054;DHT22;3055;50.886;14.814;2023-04-01T18:38:11;10.00;99.90
6054;DHT22;3055;50.886;14.814;2023-04-01T18:40:43;10.00;99.90
6054;DHT22;3055;50.886;14.814;2023-04-01T18:43:20;10.00;99.90
6054;DHT22;3055;50.886;14.814;2023-04-01T18:45:51;10.00;99.90